Harwood, MD (20776)

8:40 AM EDT on September 04, 2015 (GMT -0400)
Birdsville | | Change Station
CLOSE
Current Station
Personal Weather Station
Location: Harwood, MD
Elevation: 151 ft
Nearby Weather Stations

Elev 151 ft 38.90 °N, 76.60 °W | Updated 6 minutes ago

Clear
Clear
74.8 °F
Feels Like 74 °F
N
0.0
Wind Variable Wind from East
Gusts 5.0 mph

Today
High -- | Low -- °F
--% Chance of Precip.
Yesterday
High -- | Low -- °F
Precip. -- in
6:37 AM 7:32 PM
Waning Gibbous, 60% visible
Pressure 29.98 in
Visibility 5.0 miles
Clouds Clear
Heat Index 74 °F
Dew Point 71 °F
Humidity 89%
Rainfall 0.00 in
Snow Depth Not available.
UV 1 out of 12
Pollen 8.20 out of 12
Air Quality Not available.
Flu Activity Not available.
METAR KNAK 041154Z AUTO 34004KT 5SM HZ CLR 25/22 A2997 RMK AO2 SLP151 T02500222 10256 20239 53024
Pressure 29.98 in
Visibility 5.0 miles
Clouds Clear
Heat Index 74 °F
Dew Point 71 °F
Humidity 89%
Rainfall 0.00 in
Snow Depth Not available.
UV 1 out of 12
Pollen 8.20 out of 12
Air Quality Not available.
Flu Activity Not available.
METAR KNAK 041154Z AUTO 34004KT 5SM HZ CLR 25/22 A2997 RMK AO2 SLP151 T02500222 10256 20239 53024

10-Day Weather Forecast

×

Almanac

Astronomy

Sep. 04, 2015 Rise Set
Actual Time
Civil Twilight
Nautical Twilight
Astronomical Twilight
Moon
Length of Visible Light
Length of Day
Tomorrow will be .
, % of the Moon is Illuminated

Today's Extremes

State Highs State Lows

Community

WunderPhotos

Upload Photos

1,852,174 photos uploaded!

WunderBlogs® & News

Nearby

Air Quality

  Air Quality AQ Index Pollutant
Not available.

Snow Depth

Station Depth Elevation

Earthquake Activity

City Distance Mag. Time & Date
Minimum magnitude displayed is 2.5.

Coastal Water Temperatures

Place Temperature

Stations

Nearby Weather Stations

Station Location Temp. Windchill Dew Point Humidity Wind Precip. Elev Updated Type